createdAt,value
2019-01-17T00:06:06.726Z,34.87
2019-01-17T00:08:56.968Z,34.87
2019-01-17T00:11:57.127Z,35.97
2019-01-17T00:14:56.811Z,35.87
2019-01-17T00:17:59.993Z,36.67
2019-01-17T00:21:03.023Z,36.60
2019-01-17T00:27:07.355Z,36.83
2019-01-17T00:30:07.720Z,36.47
2019-01-17T00:36:13.700Z,36.63
2019-01-17T00:39:19.315Z,36.17
2019-01-17T00:42:12.502Z,36.70
2019-01-17T00:45:08.351Z,37.47
2019-01-17T00:48:07.903Z,37.87
2019-01-17T00:54:27.070Z,36.67
2019-01-17T01:00:40.387Z,37.07
2019-01-17T01:03:39.916Z,39.00
2019-01-17T01:06:42.502Z,39.00
2019-01-17T01:09:44.925Z,38.57
2019-01-17T01:15:46.990Z,39.27
2019-01-17T01:18:46.680Z,39.13
2019-01-17T01:21:46.372Z,39.73
2019-01-17T01:24:46.132Z,38.90
2019-01-17T01:27:51.954Z,38.27
2019-01-17T01:30:52.318Z,41.83
2019-01-17T01:33:52.633Z,41.27
2019-01-17T01:40:12.304Z,40.37
2019-01-17T01:43:11.922Z,40.57
2019-01-17T01:46:12.258Z,39.77
2019-01-17T01:52:31.791Z,40.33
2019-01-17T01:55:12.425Z,39.40
2019-01-17T01:57:53.674Z,40.37
2019-01-17T02:00:34.378Z,39.93
2019-01-17T02:03:15.029Z,41.40
2019-01-17T02:05:56.518Z,40.33
2019-01-17T02:08:38.029Z,41.87
2019-01-17T02:11:19.624Z,40.17
2019-01-17T02:14:01.129Z,41.43
2019-01-17T02:16:41.852Z,42.33
2019-01-17T02:19:23.245Z,42.73
2019-01-17T02:22:04.495Z,42.03
2019-01-17T02:24:46.031Z,40.53
2019-01-17T02:27:26.659Z,41.67
2019-01-17T02:30:07.568Z,40.33
2019-01-17T02:32:48.259Z,41.30
2019-01-17T02:35:29.887Z,40.13
2019-01-17T02:38:10.586Z,42.87
2019-01-17T02:40:51.171Z,42.47
2019-01-17T02:43:32.703Z,41.20
2019-01-17T02:46:13.661Z,40.67
2019-01-17T02:48:55.203Z,40.93
2019-01-17T02:51:35.490Z,39.70
2019-01-17T02:57:29.547Z,39.70
2019-01-17T03:00:11.032Z,39.73
2019-01-17T03:02:52.008Z,41.20
2019-01-17T03:05:32.750Z,40.80
2019-01-17T03:08:13.747Z,39.37
2019-01-17T03:10:54.681Z,40.40
2019-01-17T03:13:36.058Z,42.60
2019-01-17T03:16:17.072Z,41.07
2019-01-17T03:18:58.181Z,42.50
2019-01-17T03:21:38.815Z,40.80
2019-01-17T03:24:19.978Z,41.97
2019-01-17T03:27:00.756Z,41.80
2019-01-17T03:29:41.464Z,42.33
2019-01-17T03:32:22.494Z,42.70
2019-01-17T03:35:03.183Z,41.77
2019-01-17T03:37:44.508Z,41.70
2019-01-17T03:40:25.755Z,43.90
2019-01-17T03:43:06.298Z,42.80
2019-01-17T03:45:47.527Z,43.23
2019-01-17T03:48:29.038Z,44.23
2019-01-17T03:51:10.373Z,38.93
2019-01-17T03:53:51.025Z,43.20
2019-01-17T03:56:32.567Z,44.07
2019-01-17T03:59:13.433Z,43.37
2019-01-17T04:01:54.731Z,44.10
2019-01-17T04:04:35.790Z,44.77
2019-01-17T04:07:17.336Z,45.40
2019-01-17T04:09:58.954Z,47.57
2019-01-17T04:12:40.104Z,45.73
2019-01-17T04:15:21.588Z,46.37
2019-01-17T04:18:02.560Z,47.73
2019-01-17T04:20:43.987Z,45.53
2019-01-17T04:23:25.406Z,47.07
2019-01-17T04:26:06.538Z,44.97
2019-01-17T04:28:47.826Z,46.17
2019-01-17T04:31:29.517Z,46.50
2019-01-17T04:34:10.523Z,47.33
2019-01-17T04:36:51.884Z,47.00
2019-01-17T04:39:33.285Z,46.90
2019-01-17T04:42:13.566Z,47.20
2019-01-17T04:44:54.193Z,45.93
2019-01-17T04:47:33.624Z,47.67
2019-01-17T04:50:14.236Z,47.47
2019-01-17T04:52:55.673Z,46.37
2019-01-17T04:55:36.338Z,48.07
2019-01-17T04:58:17.436Z,49.87
2019-01-17T05:00:56.864Z,48.80
2019-01-17T05:03:45.407Z,48.10
2019-01-17T05:06:26.436Z,49.40
2019-01-17T05:09:07.076Z,48.80
2019-01-17T05:11:48.017Z,49.83
2019-01-17T05:14:29.617Z,47.73
2019-01-17T05:17:10.860Z,48.73
2019-01-17T05:19:52.126Z,49.70
2019-01-17T05:22:31.707Z,46.70
2019-01-17T05:25:20.170Z,47.83
2019-01-17T05:28:01.583Z,49.73
2019-01-17T05:30:42.926Z,50.10
2019-01-17T05:33:23.937Z,64.63
2019-01-17T05:36:05.080Z,55.20
2019-01-17T05:38:46.232Z,51.20
2019-01-17T05:41:26.889Z,50.33
2019-01-17T05:44:07.788Z,52.20
2019-01-17T05:46:49.131Z,50.40
2019-01-17T05:49:30.583Z,51.60
2019-01-17T05:52:11.772Z,51.10
2019-01-17T05:54:53.224Z,51.10
2019-01-17T05:57:34.537Z,50.83
2019-01-17T06:00:21.233Z,53.73
2019-01-17T06:06:09.631Z,53.60
2019-01-17T06:08:50.515Z,53.40
2019-01-17T06:11:31.380Z,55.17
2019-01-17T06:14:11.933Z,53.10
2019-01-17T06:16:53.245Z,51.53
2019-01-17T06:19:33.862Z,53.43
2019-01-17T06:22:15.324Z,52.97
2019-01-17T06:24:56.676Z,52.17
2019-01-17T06:27:38.123Z,53.77
2019-01-17T06:30:17.668Z,54.93
2019-01-17T06:32:58.873Z,54.73
2019-01-17T06:35:40.273Z,50.07
2019-01-17T06:38:21.863Z,55.07
2019-01-17T06:41:03.275Z,54.17
2019-01-17T06:43:44.430Z,54.90
2019-01-17T06:46:25.735Z,56.67
2019-01-17T06:49:06.532Z,55.70
2019-01-17T06:51:47.444Z,55.53
2019-01-17T06:54:28.012Z,53.13
2019-01-17T06:57:09.280Z,54.57
2019-01-17T06:59:49.879Z,52.33
2019-01-17T07:02:31.573Z,55.57
2019-01-17T07:05:12.834Z,55.27
2019-01-17T07:07:54.271Z,54.00
2019-01-17T07:10:35.596Z,54.23
2019-01-17T07:13:16.258Z,55.47
2019-01-17T07:15:56.017Z,54.97
2019-01-17T07:18:44.418Z,55.27
2019-01-17T07:21:25.723Z,53.47
2019-01-17T07:24:07.352Z,54.77
2019-01-17T07:26:48.238Z,53.00
2019-01-17T07:29:29.357Z,55.33
2019-01-17T07:32:08.969Z,54.07
2019-01-17T07:34:49.669Z,51.03
2019-01-17T07:37:30.791Z,56.00
2019-01-17T07:40:11.445Z,56.10
2019-01-17T07:42:52.770Z,58.00
2019-01-17T07:45:34.268Z,55.97
2019-01-17T07:48:15.435Z,57.43
2019-01-17T07:50:56.640Z,56.00
2019-01-17T07:53:38.108Z,55.27
2019-01-17T07:56:19.658Z,53.87
2019-01-17T07:59:00.283Z,36.30
2019-01-17T08:01:41.829Z,56.77
2019-01-17T08:04:22.504Z,58.50
2019-01-17T08:07:04.063Z,56.43
2019-01-17T08:09:46.157Z,75.30
2019-01-17T08:12:27.367Z,58.23
2019-01-17T08:15:08.651Z,58.10
2019-01-17T08:17:50.203Z,58.93
2019-01-17T08:20:31.009Z,55.07
2019-01-17T08:23:11.898Z,55.87
2019-01-17T08:25:54.329Z,58.07
2019-01-17T08:28:35.368Z,56.87
2019-01-17T08:31:16.104Z,54.80
2019-01-17T08:33:57.103Z,52.83
2019-01-17T08:36:37.764Z,55.43
2019-01-17T08:39:19.277Z,55.50
2019-01-17T08:42:00.282Z,58.53
2019-01-17T08:44:41.075Z,65.52
2019-01-17T08:47:21.786Z,60.03
2019-01-17T08:50:02.572Z,60.40
2019-01-17T08:52:44.023Z,61.60
2019-01-17T08:55:24.703Z,61.13
2019-01-17T08:58:06.289Z,62.90
2019-01-17T09:00:47.659Z,41.07
2019-01-17T09:03:28.553Z,61.57
2019-01-17T09:06:08.772Z,68.60
2019-01-17T09:08:49.767Z,68.37
2019-01-17T09:11:30.399Z,64.50
2019-01-17T09:14:11.769Z,62.17
2019-01-17T09:16:52.027Z,55.90
2019-01-17T09:19:30.482Z,56.03
2019-01-17T09:22:10.443Z,58.93
2019-01-17T09:24:50.798Z,60.93
2019-01-17T09:27:29.067Z,61.50
2019-01-17T09:54:00.721Z,57.77
2019-01-17T09:56:41.443Z,58.47
2019-01-17T09:59:22.547Z,58.00
2019-01-17T10:02:03.953Z,57.50
2019-01-17T10:04:44.891Z,60.20
2019-01-17T10:07:24.815Z,60.27
2019-01-17T10:10:03.271Z,58.13
2019-01-17T10:12:41.701Z,61.43
2019-01-17T10:15:23.633Z,61.37
2019-01-17T10:18:04.972Z,61.37
2019-01-17T10:20:46.199Z,56.33
2019-01-17T10:23:27.417Z,60.90
2019-01-17T10:26:08.301Z,59.57
2019-01-17T10:28:49.003Z,59.93
2019-01-17T10:35:04.210Z,58.47
2019-01-17T10:37:44.987Z,64.73
2019-01-17T10:40:26.512Z,63.73
2019-01-17T10:43:07.829Z,60.17
2019-01-17T10:45:49.271Z,58.67
2019-01-17T10:48:29.914Z,56.67
2019-01-17T10:51:10.496Z,57.17
2019-01-17T10:53:52.040Z,61.87
2019-01-17T10:56:32.971Z,62.80
2019-01-17T10:59:14.545Z,61.30
2019-01-17T11:01:55.528Z,61.47
2019-01-17T11:04:36.871Z,59.43
2019-01-17T11:07:17.471Z,57.67
2019-01-17T11:09:58.446Z,44.90
2019-01-17T11:12:39.157Z,50.60
2019-01-17T11:15:20.394Z,58.70
2019-01-17T11:18:01.156Z,57.37
2019-01-17T11:20:42.759Z,57.33
2019-01-17T11:23:23.692Z,58.13
2019-01-17T11:26:04.340Z,55.73
2019-01-17T11:28:45.876Z,56.47
2019-01-17T11:31:26.557Z,55.70
2019-01-17T11:34:07.637Z,57.33
2019-01-17T11:36:48.931Z,58.93
2019-01-17T11:39:29.866Z,67.82
2019-01-17T11:42:10.876Z,59.57
2019-01-17T11:44:52.186Z,57.30
2019-01-17T11:47:32.778Z,58.10
2019-01-17T11:50:13.619Z,61.97
2019-01-17T11:52:54.399Z,61.00
2019-01-17T11:55:35.359Z,60.93
2019-01-17T11:58:16.620Z,62.40
2019-01-17T12:01:02.754Z,60.90
2019-01-17T12:03:56.919Z,63.80
2019-01-17T12:06:45.475Z,63.77
2019-01-17T12:09:26.799Z,62.47
2019-01-17T12:12:07.469Z,66.63
2019-01-17T12:14:48.858Z,63.07
2019-01-17T12:17:30.416Z,63.70
2019-01-17T12:20:11.097Z,64.10
2019-01-17T12:22:52.514Z,68.03
2019-01-17T12:25:33.731Z,63.30
2019-01-17T12:28:14.929Z,62.83
2019-01-17T12:30:55.476Z,64.00
2019-01-17T12:33:36.869Z,69.17
2019-01-17T12:36:06.356Z,68.77
2019-01-17T12:38:54.842Z,67.33
2019-01-17T12:41:35.492Z,66.27
2019-01-17T12:44:16.340Z,66.17
2019-01-17T12:46:57.479Z,61.77
2019-01-17T12:49:38.871Z,61.73
2019-01-17T12:52:20.168Z,60.37
2019-01-17T12:55:01.630Z,63.83
2019-01-17T12:57:42.524Z,65.67
2019-01-17T13:00:23.656Z,62.97
2019-01-17T13:03:04.385Z,54.73
2019-01-17T13:05:45.087Z,63.80
2019-01-17T13:08:25.911Z,62.33
2019-01-17T13:11:04.940Z,61.07
2019-01-17T13:13:45.085Z,61.70
2019-01-17T13:16:23.576Z,59.07
2019-01-17T13:19:01.955Z,62.47
2019-01-17T18:16:05.095Z,85.60
2019-01-17T18:18:45.042Z,86.33
2019-01-17T18:21:23.467Z,84.63
2019-01-17T18:24:01.867Z,86.23
